Hillsdale, Wisconsin
Current Conditions -  °F | °C
As of 11:55 AM on Saturday 20 Dec 2014 (Local Time) from KRPD Reporting Station
Overcast Overcast  
Wind Chill: 25°   Ceiling: 1300
Heat Index: 30°   Visibility: 7mi
Dew Point: 26°   Wind: 6mph
Humidity: 82%   Direction: 140°SE
Pressure: 30.17"   Gusts: NA
Location:  45.32°N, 91.86°W
Report Text: KRPD 201755Z AUTO 14005KT 7SM OVC013 M01/M04 A3017 RMK AO2 T10091036 11006 21025
Loading
Personal Weather Stations






























Interactive Weather Map New forecast layout! Learn more

10-Day Weather Forecast

Advertisements
Track Severe Weather on mobile